Time;durP1;ratioP1;P1;durP2;ratioP2;P2;SDS_P1;SDS_P2;PMS_P1;PMS_P2;Temp;Humidity;BMP_temperature;BMP_pressure;BME280_temperature;BME280_humidity;BME280_pressure;Samples;Min_cycle;Max_cycle;Signal;HPM_P1;HPM_P2
2022/04/03 00:01:24;;;;;;;2.30;1.90;;;;;;;-0.56;62.01;102275.81;4998065;28;20026;-85
2022/04/03 00:03:49;;;;;;;2.13;1.90;;;;;;;-0.58;62.19;102276.53;5016110;28;20021;-85
2022/04/03 00:06:15;;;;;;;2.65;2.00;;;;;;;-0.60;62.40;102276.47;5015354;28;20034;-86
2022/04/03 00:08:40;;;;;;;2.72;1.90;;;;;;;-0.60;62.35;102276.47;5015855;28;20018;-85
2022/04/03 00:11:06;;;;;;;2.67;1.80;;;;;;;-0.67;61.92;102256.53;5016075;28;20033;-85
2022/04/03 00:13:31;;;;;;;2.92;1.80;;;;;;;-0.62;62.57;102267.84;5015100;28;20079;-85
2022/04/03 00:15:56;;;;;;;2.00;1.80;;;;;;;-0.62;62.49;102275.50;5016164;28;20025;-85
2022/04/03 00:18:22;;;;;;;3.08;2.15;;;;;;;-0.66;62.34;102268.47;5015791;28;20033;-86
2022/04/03 00:20:47;;;;;;;2.33;2.00;;;;;;;-0.66;62.38;102268.47;5015481;28;20083;-86
2022/04/03 00:23:15;;;;;;;2.20;2.00;;;;;;;-0.69;62.48;102258.13;5016134;28;20052;-85
2022/04/03 00:25:41;;;;;;;3.63;2.10;;;;;;;-0.69;62.75;102270.88;5015934;28;20030;-85
2022/04/03 00:28:06;;;;;;;2.88;2.10;;;;;;;-0.70;62.78;102264.03;5014949;28;20022;-86
2022/04/03 00:30:33;;;;;;;2.90;2.10;;;;;;;-0.71;62.49;102269.91;5015553;28;20053;-86
2022/04/03 00:32:59;;;;;;;2.95;2.00;;;;;;;-0.72;62.81;102268.16;5001362;28;20045;-86
2022/04/03 00:35:24;;;;;;;3.00;2.10;;;;;;;-0.74;62.89;102264.66;4994737;28;20506;-86
2022/04/03 00:37:49;;;;;;;2.65;2.00;;;;;;;-0.74;62.91;102265.53;4995820;28;20057;-86
2022/04/03 00:40:16;;;;;;;2.60;2.17;;;;;;;-0.75;62.82;102267.97;4996193;28;20387;-86
2022/04/03 00:42:41;;;;;;;3.47;2.30;;;;;;;-0.75;62.94;102267.97;4995122;28;20022;-86
2022/04/03 00:45:08;;;;;;;3.35;2.10;;;;;;;-0.80;63.25;102266.09;4996027;28;20032;-86
2022/04/03 00:47:33;;;;;;;3.72;2.38;;;;;;;-0.80;63.02;102270.28;4995870;28;20032;-86
2022/04/03 00:50:02;;;;;;;2.78;2.00;;;;;;;-0.83;63.15;102265.00;4994850;28;20019;-86
2022/04/03 00:52:28;;;;;;;2.70;2.10;;;;;;;-0.86;63.35;102267.41;4995750;28;20026;-86
2022/04/03 00:54:53;;;;;;;3.67;2.17;;;;;;;-0.92;63.35;102265.41;4995201;28;20419;-85
2022/04/03 00:57:24;;;;;;;2.95;1.90;;;;;;;-0.92;63.41;102265.41;4995332;28;20045;-86
2022/04/03 00:59:50;;;;;;;2.97;2.10;;;;;;;-0.95;63.46;102262.69;5000318;28;20030;-86
2022/04/03 01:02:16;;;;;;;2.42;2.03;;;;;;;-1.01;63.42;102270.88;5014140;28;20022;-86
2022/04/03 01:04:41;;;;;;;2.85;2.10;;;;;;;-1.03;63.58;102275.00;5015338;28;20470;-86
2022/04/03 01:07:07;;;;;;;2.67;2.10;;;;;;;-1.03;63.90;102264.81;5014236;28;20057;-86
2022/04/03 01:09:33;;;;;;;4.15;2.38;;;;;;;-1.04;63.58;102264.75;5014303;28;20068;-87
2022/04/03 01:11:59;;;;;;;2.83;2.20;;;;;;;-1.04;63.96;102264.75;5015093;28;20058;-86
2022/04/03 01:14:37;;;;;;;3.67;2.30;;;;;;;-1.05;63.92;102261.28;5014807;28;20052;-86
2022/04/03 01:17:04;;;;;;;2.78;2.15;;;;;;;-1.04;64.02;102269.84;5014030;28;20032;-86
2022/04/03 01:19:29;;;;;;;2.92;2.22;;;;;;;-1.06;64.23;102253.56;5015376;28;20113;-87
2022/04/03 01:21:57;;;;;;;2.38;2.10;;;;;;;-1.09;64.13;102262.81;5024054;28;20053;-86
2022/04/03 01:24:24;;;;;;;4.72;2.40;;;;;;;-1.14;64.08;102255.69;5027703;28;20486;-86
2022/04/03 01:26:50;;;;;;;3.50;2.50;;;;;;;-1.14;64.23;102260.78;5032901;28;20040;-86
2022/04/03 01:29:18;;;;;;;3.70;2.60;;;;;;;-1.17;64.46;102261.50;5015592;28;20058;-86
2022/04/03 01:31:46;;;;;;;3.38;2.13;;;;;;;-1.25;64.28;102261.06;5007440;28;20026;-86
2022/04/03 01:34:15;;;;;;;3.38;2.20;;;;;;;-1.27;64.67;102261.78;5000144;28;20073;-86
2022/04/03 01:36:41;;;;;;;3.35;2.45;;;;;;;-1.26;64.38;102261.84;4994961;28;20050;-87
2022/04/03 01:39:06;;;;;;;3.58;2.40;;;;;;;-1.29;64.50;102263.38;4994598;28;20026;-87
2022/04/03 01:41:31;;;;;;;4.28;2.40;;;;;;;-1.29;64.69;102263.38;4994768;28;20109;-86
2022/04/03 01:43:57;;;;;;;3.60;2.40;;;;;;;-1.32;65.00;102260.63;4996081;28;20389;-86
2022/04/03 01:46:22;;;;;;;3.35;2.30;;;;;;;-1.35;64.58;102263.03;4993891;28;20038;-86
2022/04/03 01:48:47;;;;;;;3.28;2.42;;;;;;;-1.38;64.77;102255.22;4995017;28;20072;-86
2022/04/03 01:51:12;;;;;;;4.03;2.40;;;;;;;-1.42;64.77;102251.63;4994000;28;20109;-86
2022/04/03 01:53:43;;;;;;;3.10;2.55;;;;;;;-1.43;64.83;102248.19;4994643;28;20030;-86
2022/04/03 01:56:08;;;;;;;3.60;2.50;;;;;;;-1.44;65.04;102258.28;4995179;28;20069;-86
2022/04/03 01:58:34;;;;;;;3.90;2.70;;;;;;;-1.45;64.83;102247.19;4993930;28;20041;-86
2022/04/03 02:01:01;;;;;;;4.10;2.70;;;;;;;-1.45;65.11;102249.75;4994984;28;20475;-87
2022/04/03 02:03:27;;;;;;;4.18;2.50;;;;;;;-1.48;64.97;102251.25;4994693;28;20292;-86
2022/04/03 02:05:53;;;;;;;4.13;2.42;;;;;;;-1.54;65.29;102250.91;4994048;28;20398;-86
2022/04/03 02:08:18;;;;;;;3.33;2.40;;;;;;;-1.60;65.12;102252.31;4994342;28;20033;-86
2022/04/03 02:10:43;;;;;;;4.10;2.35;;;;;;;-1.67;65.50;102255.31;4998213;28;20040;-86
2022/04/03 02:13:09;;;;;;;2.53;2.25;;;;;;;-1.72;65.32;102252.50;5013427;28;20386;-86
2022/04/03 02:15:34;;;;;;;3.97;2.30;;;;;;;-1.76;65.56;102253.09;5011260;28;20511;-86
2022/04/03 02:18:00;;;;;;;4.35;2.58;;;;;;;-1.79;65.58;102245.28;4994714;28;20040;-86
2022/04/03 02:20:26;;;;;;;4.03;2.60;;;;;;;-1.80;65.77;102251.16;4992897;28;20045;-86
2022/04/03 02:22:51;;;;;;;4.95;2.60;;;;;;;-1.80;65.91;102256.25;4994392;28;20394;-86
2022/04/03 02:25:16;;;;;;;4.55;2.60;;;;;;;-1.80;65.66;102253.69;4993967;28;20033;-85
2022/04/03 02:27:44;;;;;;;4.03;2.67;;;;;;;-1.83;65.73;102248.44;4993578;28;20023;-86
2022/04/03 02:30:10;;;;;;;3.70;2.60;;;;;;;-1.85;66.11;102262.75;4994755;28;20031;-86
2022/04/03 02:32:39;;;;;;;5.22;2.70;;;;;;;-1.92;66.07;102245.38;4994150;28;20080;-86
2022/04/03 02:35:07;;;;;;;4.07;2.47;;;;;;;-1.96;65.97;102245.97;4993276;28;20047;-86
2022/04/03 02:39:57;;;;;;;3.47;2.20;;;;;;;-2.03;66.55;102247.28;5019734;23;20050;-86
2022/04/03 02:42:23;;;;;;;4.22;2.50;;;;;;;-2.09;66.50;102244.38;5012360;28;20697;-85
2022/04/03 02:44:48;;;;;;;2.80;2.30;;;;;;;-2.10;66.56;102245.16;5013405;28;20025;-86
2022/04/03 02:47:14;;;;;;;2.65;2.20;;;;;;;-2.13;66.60;102248.38;5013519;28;20032;-86
2022/04/03 02:49:39;;;;;;;2.63;2.20;;;;;;;-2.17;66.81;102238.84;5012801;28;20080;-86
2022/04/03 02:52:05;;;;;;;3.70;2.28;;;;;;;-2.17;66.64;102241.38;5013470;28;20037;-85
2022/04/03 02:54:31;;;;;;;3.70;2.40;;;;;;;-2.20;66.40;102241.19;5012712;28;20026;-85
2022/04/03 02:56:56;;;;;;;4.30;2.60;;;;;;;-2.19;66.79;102248.03;5012822;28;20491;-85
2022/04/03 02:59:21;;;;;;;4.47;2.63;;;;;;;-2.22;67.04;102241.09;5013336;28;20040;-85
2022/04/03 03:01:50;;;;;;;4.78;2.70;;;;;;;-2.18;66.93;102249.78;5012639;28;20138;-86
2022/04/03 03:04:15;;;;;;;3.40;2.30;;;;;;;-2.16;66.92;102250.75;5013302;28;20363;-86
2022/04/03 03:06:40;;;;;;;3.92;2.40;;;;;;;-2.15;66.85;102249.09;5012836;28;20064;-85
2022/04/03 03:09:06;;;;;;;4.50;2.75;;;;;;;-2.13;66.94;102256.00;5012455;28;20057;-86
2022/04/03 03:11:31;;;;;;;2.67;2.33;;;;;;;-2.15;67.22;102255.06;5012922;28;20363;-85
2022/04/03 03:13:57;;;;;;;4.63;2.67;;;;;;;-2.17;66.93;102256.63;5013220;28;20088;-85
2022/04/03 03:16:22;;;;;;;4.50;2.60;;;;;;;-2.19;67.64;102253.13;5012166;28;20029;-85
2022/04/03 03:18:47;;;;;;;4.50;2.40;;;;;;;-2.27;67.05;102245.03;5013332;28;20033;-85
2022/04/03 03:21:13;;;;;;;4.30;2.60;;;;;;;-2.21;66.86;102257.22;5007921;28;20038;-85
2022/04/03 03:23:40;;;;;;;3.92;2.50;;;;;;;-2.24;67.47;102257.94;5011944;28;20408;-85
2022/04/03 03:26:05;;;;;;;;;;;;;;;-2.22;67.40;102264.00;5013373;28;20104;-85
2022/04/03 03:28:31;;;;;;;4.00;2.60;;;;;;;-2.23;67.51;102267.31;5013012;28;20007;-85
2022/04/03 03:30:56;;;;;;;3.72;2.70;;;;;;;-2.26;67.27;102259.50;5013955;28;20033;-85
2022/04/03 03:33:21;;;;;;;2.78;2.30;;;;;;;-2.25;67.41;102265.47;5016951;28;20037;-84
2022/04/03 03:35:47;;;;;;;4.63;2.70;;;;;;;-2.28;67.32;102265.28;5016894;28;20497;-85
2022/04/03 03:38:12;;;;;;;3.13;2.40;;;;;;;-2.31;67.51;102255.81;5016295;28;20120;-84
2022/04/03 03:40:39;;;;;;;2.92;2.30;;;;;;;-2.35;67.40;102261.50;5016946;28;20413;-84
2022/04/03 03:43:04;;;;;;;4.28;2.58;;;;;;;-2.37;67.64;102253.78;5017035;28;20025;-85
2022/04/03 03:45:30;;;;;;;4.43;2.70;;;;;;;-2.38;67.82;102268.94;5016286;28;20080;-84
2022/04/03 03:47:57;;;;;;;3.92;2.40;;;;;;;-2.41;67.87;102266.19;5024366;28;20028;-84
2022/04/03 03:50:25;;;;;;;3.45;2.38;;;;;;;-2.45;67.88;102266.81;5034772;28;20010;-84
2022/04/03 03:52:50;;;;;;;4.82;2.50;;;;;;;-2.51;67.73;102262.22;5029298;28;20034;-84
2022/04/03 03:55:16;;;;;;;3.50;2.40;;;;;;;-2.51;68.18;102259.69;5026084;28;20057;-84
2022/04/03 03:57:45;;;;;;;3.47;2.53;;;;;;;-2.55;68.14;102270.44;5019435;28;20022;-84
2022/04/03 04:00:13;;;;;;;4.28;2.40;;;;;;;-2.57;68.35;102255.09;5017991;28;20048;-84
2022/04/03 04:02:39;;;;;;;3.22;2.38;;;;;;;-2.56;67.91;102266.13;5016851;28;20045;-84
2022/04/03 04:05:09;;;;;;;4.45;2.50;;;;;;;-2.57;68.08;102264.38;5016408;28;20026;-84
2022/04/03 04:07:42;;;;;;;3.30;2.42;;;;;;;-2.60;68.24;102260.00;5016603;28;20109;-84
2022/04/03 04:10:12;;;;;;;4.30;2.53;;;;;;;-2.62;68.26;102264.09;5017283;28;20029;-85
2022/04/03 04:12:44;;;;;;;3.97;2.40;;;;;;;-2.61;68.22;102265.84;5016136;28;20081;-85
2022/04/03 04:15:12;;;;;;;4.55;2.85;;;;;;;-2.63;68.35;102262.34;5016851;28;20382;-82
2022/04/03 04:17:41;;;;;;;;;;;;;;;-2.68;68.57;102262.06;5016299;28;20034;-84
2022/04/03 04:20:11;;;;;;;4.15;2.83;;;;;;;-2.72;68.35;102260.13;5015238;28;20433;-84
2022/04/03 04:22:36;;;;;;;3.53;2.65;;;;;;;-2.80;68.38;102259.66;5015790;28;20545;-84
2022/04/03 04:25:02;;;;;;;3.95;2.40;;;;;;;-2.81;68.67;102268.06;5015900;28;20061;-84
2022/04/03 04:27:27;;;;;;;3.38;2.70;;;;;;;-2.84;68.94;102269.53;5014690;28;20026;-84
2022/04/03 04:29:58;;;;;;;3.75;2.30;;;;;;;-2.88;69.18;102270.09;5016041;28;20466;-84
2022/04/03 04:32:24;;;;;;;3.17;2.50;;;;;;;-2.91;69.34;102270.81;5015146;28;20065;-84
2022/04/03 04:34:50;;;;;;;4.85;2.75;;;;;;;-2.93;69.17;102271.50;5015359;28;20037;-84
2022/04/03 04:37:16;;;;;;;3.25;2.42;;;;;;;-2.93;69.05;102271.50;5015730;28;20029;-84
2022/04/03 04:39:42;;;;;;;3.00;2.47;;;;;;;-2.98;69.23;102277.16;5015385;28;20049;-84
2022/04/03 04:42:08;;;;;;;3.63;2.40;;;;;;;-2.98;69.32;102271.19;5014349;28;20096;-84
2022/04/03 04:44:33;;;;;;;4.10;2.40;;;;;;;-2.96;69.32;102267.06;5015737;28;20374;-84
2022/04/03 04:46:58;;;;;;;3.15;2.50;;;;;;;-2.97;69.73;102267.84;5015228;28;20422;-84
2022/04/03 04:49:24;;;;;;;4.43;2.50;;;;;;;-2.93;69.63;102279.13;5014993;28;20029;-84
2022/04/03 04:51:49;;;;;;;3.17;2.22;;;;;;;-2.96;69.43;102285.75;5015331;28;20355;-84
2022/04/03 04:54:14;;;;;;;4.70;2.80;;;;;;;-3.00;69.39;102283.78;5014851;28;20026;-84
2022/04/03 04:56:40;;;;;;;3.40;2.67;;;;;;;-2.99;69.50;102288.09;5015039;28;20113;-83
2022/04/03 04:59:05;;;;;;;3.72;2.70;;;;;;;-3.02;69.33;102287.91;5015108;28;20025;-84
2022/04/03 05:01:30;;;;;;;3.33;2.50;;;;;;;-3.05;69.44;102290.25;5014172;28;20030;-84
2022/04/03 05:03:58;;;;;;;4.88;2.75;;;;;;;-3.04;69.49;102296.22;5015209;28;20026;-84
2022/04/03 05:06:26;;;;;;;3.88;2.63;;;;;;;-3.05;69.41;102299.53;5015417;28;20054;-83
2022/04/03 05:08:52;;;;;;;3.38;2.60;;;;;;;-3.06;69.25;102298.66;5014502;28;20026;-84
2022/04/03 05:11:18;;;;;;;4.13;2.63;;;;;;;-3.10;69.88;102292.47;5013403;23;20062;-83
2022/04/03 05:13:43;;;;;;;4.15;2.55;;;;;;;-3.09;70.06;102298.47;4995528;28;20398;-84
2022/04/03 05:16:08;;;;;;;3.38;2.30;;;;;;;-3.14;70.06;102295.63;4994759;28;20027;-84
2022/04/03 05:18:35;;;;;;;4.32;2.60;;;;;;;-3.08;70.00;102302.75;4995146;28;20027;-83
2022/04/03 05:21:01;;;;;;;3.42;2.75;;;;;;;-3.11;69.65;102300.91;4995457;28;20597;-85
2022/04/03 05:23:27;;;;;;;3.60;2.58;;;;;;;-3.08;70.06;102305.28;4994748;28;20026;-84
2022/04/03 05:25:55;;;;;;;3.58;2.50;;;;;;;-3.04;70.01;102302.16;4995464;28;20493;-83
2022/04/03 05:28:21;;;;;;;5.40;3.10;;;;;;;-3.04;70.04;102302.16;5013777;28;20120;-83
2022/04/03 05:30:47;;;;;;;4.23;2.70;;;;;;;-3.05;70.32;102312.22;5014066;28;20045;-83
2022/04/03 05:33:14;;;;;;;4.05;2.40;;;;;;;-3.04;70.05;102307.22;5014774;28;20757;-83
2022/04/03 05:35:39;;;;;;;4.00;2.50;;;;;;;-2.99;69.97;102313.50;5014068;28;20440;-84
2022/04/03 05:38:04;;;;;;;3.38;2.50;;;;;;;-2.96;70.04;102315.34;5014018;28;20022;-83
2022/04/03 05:40:30;;;;;;;4.03;2.65;;;;;;;-2.93;70.01;102312.16;5014615;28;20109;-83
2022/04/03 05:42:55;;;;;;;3.90;2.60;;;;;;;-2.95;70.13;102319.66;5014809;28;20088;-83
2022/04/03 05:45:20;;;;;;;3.17;2.35;;;;;;;-2.93;70.32;102309.59;5013734;28;20044;-83
2022/04/03 05:47:45;;;;;;;4.65;2.70;;;;;;;-2.88;70.45;102323.47;5014766;28;20034;-83
2022/04/03 05:50:12;;;;;;;3.75;2.88;;;;;;;-2.86;70.43;102316.81;5015029;28;20026;-84
2022/04/03 05:52:42;;;;;;;3.40;2.60;;;;;;;-2.83;71.12;102322.97;5019943;28;20049;-84
2022/04/03 05:55:08;;;;;;;3.55;2.50;;;;;;;-2.78;70.49;102323.25;5014929;28;20437;-82
2022/04/03 05:57:34;;;;;;;4.18;2.53;;;;;;;-2.72;70.89;102321.13;4994802;28;20081;-83
2022/04/03 05:59:59;;;;;;;3.58;2.65;;;;;;;-2.70;70.86;102319.53;4995013;28;20035;-83
2022/04/03 06:02:26;;;;;;;2.83;2.30;;;;;;;-2.64;70.77;102321.59;4994733;28;20026;-83
2022/04/03 06:04:52;;;;;;;3.30;2.38;;;;;;;-2.58;70.84;102321.97;4994099;28;20034;-83
2022/04/03 06:07:20;;;;;;;3.20;2.55;;;;;;;-2.50;71.09;102325.00;4994402;28;20077;-83
2022/04/03 06:09:45;;;;;;;2.92;2.30;;;;;;;-2.42;70.66;102328.91;4994452;28;20034;-83
2022/04/03 06:12:11;;;;;;;3.35;2.50;;;;;;;-2.34;70.55;102330.22;4993517;28;20105;-83
2022/04/03 06:14:39;;;;;;;4.30;2.63;;;;;;;-2.33;70.63;102326.03;4994182;28;20039;-83
2022/04/03 06:17:08;;;;;;;4.10;2.60;;;;;;;-2.29;71.19;102327.97;5003628;28;20033;-85
2022/04/03 06:19:33;;;;;;;3.85;2.42;;;;;;;-2.21;70.75;102338.63;5017729;28;20230;-86
2022/04/03 06:21:58;;;;;;;4.20;2.45;;;;;;;-2.13;71.55;102339.97;5020490;28;20025;-85
2022/04/03 06:24:23;;;;;;;3.65;2.40;;;;;;;-2.10;71.50;102335.06;5055604;23;20074;-83
2022/04/03 06:26:48;;;;;;;3.72;2.33;;;;;;;-2.00;71.12;102335.63;5052526;28;20038;-81
2022/04/03 06:29:14;;;;;;;3.08;2.40;;;;;;;-1.93;71.17;102337.75;5053305;28;20028;-80
2022/04/03 06:31:39;;;;;;;3.25;2.40;;;;;;;-1.89;71.40;102334.59;5052876;28;20377;-80
2022/04/03 06:34:04;;;;;;;3.08;2.30;;;;;;;-1.83;71.43;102329.91;5046530;22;20049;-80
2022/04/03 06:36:30;;;;;;;3.20;2.58;;;;;;;-1.79;71.14;102330.94;5033060;28;20084;-80
2022/04/03 06:38:55;;;;;;;2.88;2.20;;;;;;;-1.77;71.44;102321.75;5033214;28;20017;-80
2022/04/03 06:41:26;;;;;;;3.80;2.42;;;;;;;-1.72;71.88;102333.94;5031897;28;20358;-80
2022/04/03 06:43:51;;;;;;;2.63;2.20;;;;;;;-1.65;71.19;102330.09;5032297;28;20033;-81
2022/04/03 06:46:17;;;;;;;3.05;2.22;;;;;;;-1.57;71.94;102335.63;5032067;28;20032;-81
2022/04/03 06:48:42;;;;;;;2.67;2.10;;;;;;;-1.51;72.01;102333.44;5032336;28;20430;-81
2022/04/03 06:51:10;;;;;;;2.20;2.00;;;;;;;-1.46;72.74;102337.13;5032121;28;20091;-81
2022/04/03 06:53:35;;;;;;;2.97;2.10;;;;;;;-1.41;71.77;102338.28;5018246;28;20385;-80
2022/04/03 06:56:21;;;;;;;3.33;2.22;;;;;;;-1.41;71.47;102323.00;5013575;28;20026;-81
2022/04/03 07:01:21;;;;;;;3.00;2.47;;;;;;;-0.85;71.02;102330.34;5065913;23;20167;-81
2022/04/03 07:03:52;;;;;;;2.80;2.40;;;;;;;0.72;69.72;102330.00;5052460;28;20021;-81
2022/04/03 07:06:18;;;;;;;4.00;2.70;;;;;;;1.50;66.49;102325.97;5261927;22;20003;-81
2022/04/03 07:08:45;;;;;;;5.28;2.85;;;;;;;1.53;66.17;102334.66;5019935;28;20029;-82
2022/04/03 07:11:10;;;;;;;4.30;2.70;;;;;;;1.38;66.01;102329.72;5032379;28;20029;-82
2022/04/03 07:42:56;;;;;;;4.18;3.00;;;;;;;1.27;68.53;102340.25;4973287;28;20097;-83
2022/04/03 07:45:22;;;;;;;4.13;2.90;;;;;;;1.21;68.75;102345.97;5007027;23;20054;-83
2022/04/03 07:47:51;;;;;;;4.00;2.80;;;;;;;1.15;69.99;102346.53;5076687;23;20501;-83
2022/04/03 07:50:20;;;;;;;4.15;2.70;;;;;;;1.13;70.32;102343.03;5032198;28;20029;-84
2022/04/03 07:52:54;;;;;;;3.53;2.53;;;;;;;1.19;70.87;102350.13;5021326;28;20026;-83
2022/04/03 07:55:20;;;;;;;6.10;3.10;;;;;;;1.25;71.62;102347.84;5022063;28;20021;-84
2022/04/03 07:57:45;;;;;;;5.32;3.10;;;;;;;1.31;71.01;102350.72;5031134;28;20029;-85
2022/04/03 08:00:14;;;;;;;4.22;2.97;;;;;;;1.41;71.87;102349.44;5020039;28;20072;-84
2022/04/03 08:02:41;;;;;;;3.60;2.72;;;;;;;1.52;71.67;102345.69;5012332;28;20120;-84
2022/04/03 08:05:07;;;;;;;3.53;2.70;;;;;;;1.65;71.37;102348.81;5012041;28;20486;-85
2022/04/03 08:07:36;;;;;;;4.70;2.97;;;;;;;1.76;70.94;102349.31;5011485;28;20041;-84
2022/04/03 08:10:08;;;;;;;5.53;3.08;;;;;;;1.87;70.68;102352.34;5012295;28;20036;-85
2022/04/03 08:12:34;;;;;;;5.85;3.17;;;;;;;1.96;71.12;102351.09;4994039;28;20037;-86
2022/04/03 08:15:04;;;;;;;4.50;3.00;;;;;;;2.07;70.70;102351.56;4993303;28;20034;-85
2022/04/03 08:17:29;;;;;;;3.90;2.80;;;;;;;2.25;69.76;102353.19;4993435;28;20030;-85
2022/04/03 08:19:55;;;;;;;3.80;2.50;;;;;;;2.37;69.99;102351.16;4995446;28;20026;-86
2022/04/03 08:22:20;;;;;;;2.90;2.50;;;;;;;2.52;68.66;102356.03;4996374;28;20086;-85
2022/04/03 08:24:56;;;;;;;;;;;;;;;;;;;;;
2022/04/03 08:40:20;;;;;;;5.35;2.40;;;;;;;3.44;65.35;102350.31;5558684;23;20045;-87
2022/04/03 08:42:46;;;;;;;3.10;2.20;;;;;;;3.53;66.09;102349.81;5016866;28;20110;-86
2022/04/03 08:45:15;;;;;;;4.07;2.22;;;;;;;3.67;65.97;102347.75;5020988;28;20085;-89
2022/04/03 08:48:00;;;;;;;2.67;2.10;;;;;;;3.84;65.60;102353.50;5022170;28;20030;-86
2022/04/03 08:54:01;;;;;;;3.22;2.30;;;;;;;4.09;64.91;102357.84;4958249;29;20063;-85
2022/04/03 08:59:31;;;;;;;2.30;2.10;;;;;;;4.38;63.44;102359.69;5893741;23;20117;-84
2022/04/03 09:01:56;;;;;;;3.40;2.40;;;;;;;4.48;63.63;102361.75;4995057;28;20038;-86
2022/04/03 09:04:30;;;;;;;2.42;2.00;;;;;;;4.66;62.05;102352.94;4997866;28;20371;-85
2022/04/03 09:06:58;;;;;;;2.88;2.20;;;;;;;4.85;62.25;102354.38;5015599;23;20073;-86
2022/04/03 09:09:27;;;;;;;3.08;2.35;;;;;;;5.02;60.82;102353.25;5014319;28;20030;-86
2022/04/03 09:12:13;;;;;;;3.38;2.30;;;;;;;5.32;60.71;102351.59;5018224;28;20026;-86
2022/04/03 09:14:49;;;;;;;2.20;2.00;;;;;;;5.66;60.55;102350.91;5014179;28;20064;-85
2022/04/03 09:17:49;;;;;;;4.43;2.30;;;;;;;5.98;58.33;102339.78;5011630;28;20429;-86
2022/04/03 09:20:20;;;;;;;2.63;2.00;;;;;;;5.99;57.84;102347.56;4987163;28;20120;-86
2022/04/03 09:22:49;;;;;;;2.78;1.98;;;;;;;5.94;55.63;102341.41;4994541;28;20497;-86
2022/04/03 09:31:26;;;;;;;1.75;1.65;;;;;;;5.92;59.58;102334.44;5211972;23;20410;-85
2022/04/03 09:43:35;;;;;;;3.40;2.10;;;;;;;6.56;57.22;102340.47;4972203;28;20054;-85
2022/04/03 09:46:05;;;;;;;2.35;1.70;;;;;;;6.65;57.15;102334.69;4973007;28;20034;-85
2022/04/03 09:48:31;;;;;;;4.43;2.40;;;;;;;6.72;53.86;102338.28;4958313;28;20567;-86
2022/04/03 09:51:22;;;;;;;3.38;2.60;;;;;;;6.47;55.09;102329.94;4962021;29;20031;-85
2022/04/03 09:53:53;;;;;;;2.78;2.30;;;;;;;6.21;53.27;102329.25;4990953;22;20049;-85
2022/04/03 09:56:21;;;;;;;2.95;2.10;;;;;;;6.36;51.66;102328.78;5018654;28;20378;-86
2022/04/03 09:58:49;;;;;;;4.18;2.03;;;;;;;6.49;53.47;102318.81;5013601;28;20468;-85
2022/04/03 10:01:26;;;;;;;4.55;2.17;;;;;;;6.77;53.39;102323.78;5014187;28;20025;-85
2022/04/03 10:03:52;;;;;;;2.78;1.63;;;;;;;7.06;55.06;102308.97;5012712;28;20540;-85
2022/04/03 10:06:18;;;;;;;2.07;1.67;;;;;;;7.28;52.74;102300.84;5013420;28;20030;-85
2022/04/03 10:08:53;;;;;;;3.08;2.00;;;;;;;6.97;47.83;102313.06;4995160;28;20018;-85
2022/04/03 10:11:21;;;;;;;1.75;1.65;;;;;;;6.83;48.57;102311.03;4993110;28;20048;-85
2022/04/03 10:13:47;;;;;;;3.90;1.80;;;;;;;6.56;47.85;102301.78;4993173;28;20034;-85
2022/04/03 10:16:14;;;;;;;3.28;1.58;;;;;;;6.42;48.72;102300.56;4993831;28;20030;-87
2022/04/03 10:18:39;;;;;;;1.40;1.30;;;;;;;6.67;48.40;102299.47;4992417;28;20031;-86
2022/04/03 10:21:08;;;;;;;1.73;1.50;;;;;;;7.09;45.49;102287.53;4994918;28;20092;-93
2022/04/03 10:23:37;;;;;;;1.58;1.30;;;;;;;7.39;51.03;102289.91;4994119;28;20030;-86
2022/04/03 10:26:05;;;;;;;1.92;1.10;;;;;;;7.59;50.65;102284.31;5011354;28;20029;-87
2022/04/03 10:31:07;;;;;;;1.65;1.10;;;;;;;7.50;50.19;102290.13;5019847;23;20057;-86
2022/04/03 10:33:40;;;;;;;1.15;1.10;;;;;;;7.42;49.41;102291.69;5012743;28;20054;-87
2022/04/03 10:36:09;;;;;;;1.92;1.40;;;;;;;7.36;50.11;102292.44;5011124;28;20042;-86
2022/04/03 10:38:42;;;;;;;1.10;1.10;;;;;;;7.32;51.15;102289.75;5012456;28;20053;-86
2022/04/03 10:41:26;;;;;;;1.67;1.35;;;;;;;7.34;44.07;102288.94;4993045;28;20060;-87
2022/04/03 10:44:10;;;;;;;1.40;1.30;;;;;;;7.40;47.18;102278.72;4994702;28;20037;-86
2022/04/03 10:47:01;;;;;;;1.02;1.02;;;;;;;7.55;44.20;102278.16;4993051;28;20030;-86
2022/04/03 10:49:49;;;;;;;1.80;1.27;;;;;;;7.55;46.34;102270.41;4993963;28;20534;-87
2022/04/03 10:52:42;;;;;;;1.75;1.58;;;;;;;7.43;48.62;102280.50;4994664;28;20108;-86
2022/04/03 10:55:16;;;;;;;1.67;1.40;;;;;;;7.34;49.32;102276.03;4994080;28;20057;-83
2022/04/03 10:57:46;;;;;;;2.17;1.52;;;;;;;7.27;50.14;102268.97;4993800;28;20479;-87
2022/04/03 11:00:12;;;;;;;3.20;1.70;;;;;;;7.22;48.38;102270.59;5008575;28;20076;-84
2022/04/03 11:02:37;;;;;;;1.93;1.70;;;;;;;7.16;50.79;102263.59;5013173;28;20037;-85
2022/04/03 11:05:21;;;;;;;1.40;1.30;;;;;;;7.32;50.42;102267.38;5013045;28;20060;-84
2022/04/03 11:07:47;;;;;;;1.23;1.20;;;;;;;7.43;50.42;102267.59;5012493;28;20488;-84
2022/04/03 11:10:12;;;;;;;1.80;1.60;;;;;;;7.41;48.59;102270.16;5013196;28;20117;-84
2022/04/03 11:12:45;;;;;;;2.25;1.48;;;;;;;7.44;47.42;102269.31;5012677;28;20030;-84
2022/04/03 11:15:13;;;;;;;2.15;1.27;;;;;;;7.47;48.89;102263.38;5013292;28;20022;-84
2022/04/03 11:17:52;;;;;;;1.48;1.30;;;;;;;7.58;50.46;102260.16;5013021;28;20108;-84
2022/04/03 11:20:33;;;;;;;1.15;1.15;;;;;;;7.76;48.57;102256.22;5013223;28;20030;-85
2022/04/03 11:22:59;;;;;;;2.10;1.60;;;;;;;7.76;48.08;102255.31;5012138;28;20053;-84
2022/04/03 11:25:24;;;;;;;2.75;1.60;;;;;;;7.73;49.39;102253.56;4993124;28;20486;-85
2022/04/03 11:27:50;;;;;;;1.70;1.50;;;;;;;7.69;48.74;102252.63;4993939;28;20141;-84
2022/04/03 11:30:19;;;;;;;1.48;1.30;;;;;;;7.62;49.20;102252.47;4992494;28;20379;-84
2022/04/03 11:33:02;;;;;;;1.65;1.52;;;;;;;7.53;49.51;102246.28;4993501;28;20072;-84
2022/04/03 11:35:40;;;;;;;1.45;1.35;;;;;;;7.45;50.73;102239.22;4992438;28;20447;-84
2022/04/03 11:38:23;;;;;;;1.60;1.50;;;;;;;7.40;48.28;102244.28;4993571;28;20030;-84
2022/04/03 11:40:49;;;;;;;2.72;2.03;;;;;;;7.15;47.82;102250.66;4993390;28;20034;-85
2022/04/03 11:43:17;;;;;;;2.85;2.13;;;;;;;7.09;48.03;102241.94;4992478;28;20052;-85
2022/04/03 11:45:55;;;;;;;2.75;1.80;;;;;;;7.21;47.76;102243.03;4993286;28;20034;-85
2022/04/03 11:48:23;;;;;;;2.75;2.00;;;;;;;7.26;49.56;102231.97;4992814;28;20573;-85
2022/04/03 11:50:52;;;;;;;2.20;2.00;;;;;;;7.34;48.77;102242.47;4992517;28;20026;-84
2022/04/03 11:53:18;;;;;;;3.50;2.13;;;;;;;7.04;46.73;102238.38;5000186;28;20072;-85
2022/04/03 11:55:43;;;;;;;3.33;2.00;;;;;;;6.99;48.50;102240.00;5015805;28;20068;-85
2022/04/03 11:58:09;;;;;;;1.92;1.77;;;;;;;6.99;48.65;102226.19;5015050;28;20476;-85
2022/04/03 12:00:44;;;;;;;1.97;1.60;;;;;;;7.07;48.19;102240.16;5014730;28;20180;-86
2022/04/03 12:03:12;;;;;;;3.10;1.70;;;;;;;7.03;49.15;102248.66;5015598;28;20087;-85
2022/04/03 12:05:41;;;;;;;2.28;1.90;;;;;;;6.99;50.93;102242.56;5016456;28;20029;-85
2022/04/03 12:08:06;;;;;;;2.25;2.00;;;;;;;6.95;51.40;102238.16;5016163;28;20026;-85
2022/04/03 12:10:33;;;;;;;2.87;2.00;;;;;;;6.95;51.08;102241.63;5016568;28;20037;-85
2022/04/03 12:12:58;;;;;;;2.50;2.22;;;;;;;7.00;51.32;102240.84;5019358;28;20026;-84
2022/04/03 12:15:32;;;;;;;2.60;2.00;;;;;;;7.04;50.87;102237.50;5015569;28;20032;-85
2022/04/03 12:17:57;;;;;;;3.03;2.10;;;;;;;6.90;51.11;102237.22;5015405;28;20493;-85
2022/04/03 12:20:23;;;;;;;3.30;2.00;;;;;;;6.85;52.94;102231.94;5015760;28;20049;-84
2022/04/03 12:22:52;;;;;;;5.00;2.00;;;;;;;6.91;52.28;102232.06;5000013;28;20113;-85
2022/04/03 12:25:18;;;;;;;3.60;2.20;;;;;;;7.01;53.29;102224.53;4995519;28;20138;-85
2022/04/03 12:27:44;;;;;;;3.67;2.40;;;;;;;7.23;53.18;102228.44;4996560;28;20398;-85
2022/04/03 12:30:15;;;;;;;4.22;2.00;;;;;;;7.57;53.71;102224.81;4995670;28;20053;-85
2022/04/03 12:32:43;;;;;;;3.38;2.10;;;;;;;7.98;53.26;102225.56;4994972;28;20045;-85
2022/04/03 12:35:11;;;;;;;2.00;1.83;;;;;;;8.46;52.40;102216.03;4996284;28;20027;-84
2022/04/03 12:37:40;;;;;;;3.13;2.00;;;;;;;8.73;50.07;102210.41;4995836;28;20034;-85
2022/04/03 12:40:08;;;;;;;1.83;1.73;;;;;;;8.71;49.71;102206.94;4995377;28;20044;-85
2022/04/03 12:42:39;;;;;;;2.03;1.88;;;;;;;8.62;50.19;102202.47;4995892;28;20402;-84
2022/04/03 12:45:15;;;;;;;2.13;1.92;;;;;;;8.50;50.70;102203.19;4995896;28;20097;-85